Observations for BIRMINGHAM AIRPORT, United Kingdom (EGBB)

EGBB 240920Z 34005KT 310V020 3000 HZ OVC006 17/16 Q1015 
EGBB 240850Z 01004KT 340V080 3000 HZ OVC004 16/16 Q1015 
EGBB 240820Z 02004KT 320V070 2800 BR OVC004 16/15 Q1015 
EGBB 240750Z 06004KT 010V090 2800 BR OVC004 15/15 Q1015 
EGBB 240720Z 04005KT 360V070 2100 BR OVC003 15/15 Q1015 
EGBB 240650Z 02006KT 250V060 1500 BR OVC002 15/15 Q1015 
EGBB 240620Z 03005KT 330V050 1100 R15/P1500 BR OVC002 15/15 Q1015   
EGBB 240550Z 03005KT 330V060 1100 R15/P1500 BR OVC002 15/15 Q1014   
EGBB 240520Z 02005KT 330V060 1200 R15/P1500 BR OVC003 15/15 Q1014   
EGBB 240450Z 01004KT 1900 BR OVC003 15/14 Q1014 
EGBB 240420Z 03004KT 350V060 2000 BR OVC003 15/14 Q1014 
EGBB 240350Z 05005KT 2500 BR OVC003 15/14 Q1014 
EGBB 240320Z 02005KT 3500 BR OVC003 15/14 Q1014 
EGBB 240250Z 02004KT 4200 BR OVC004 15/14 Q1014 
EGBB 240220Z 04005KT 5000 BR OVC005 15/14 Q1014 
EGBB 240150Z 35004KT 8000 OVC006 15/14 Q1015
EGBB 240120Z 02004KT 8000 BKN007 15/14 Q1015
EGBB 240050Z 03005KT CAVOK 15/14 Q1015  
EGBB 240020Z 03005KT CAVOK 15/14 Q1015  
EGBB 232350Z 03006KT 9999 BKN047 16/14 Q1015
EGBB 232320Z 01006KT CAVOK 16/14 Q1015  
EGBB 232250Z 02005KT CAVOK 16/14 Q1015  
EGBB 232220Z 05006KT CAVOK 16/14 Q1016  
EGBB 232150Z 01005KT CAVOK 16/14 Q1016  
EGBB 232120Z 06007KT 030V090 CAVOK 17/14 Q1016  
EGBB 232050Z 05006KT 020V080 CAVOK 17/14 Q1016  
EGBB 232020Z 06007KT CAVOK 17/14 Q1015  
EGBB 231950Z 07008KT CAVOK 18/14 Q1015  
EGBB 231920Z 07010KT 050V120 CAVOK 18/14 Q1015  
EGBB 231850Z 08008KT 050V120 CAVOK 18/15 Q1015  
EGBB 231820Z 07010KT 050V110 CAVOK 19/15 Q1015  
EGBB 231750Z 07010KT CAVOK 19/15 Q1016  
EGBB 231720Z 07010KT 040V110 CAVOK 19/15 Q1015  
EGBB 231650Z 06009KT 9999 -SHRA SCT030 20/15 Q1016  
EGBB 231620Z 07008KT 040V160 9999 -SHRA FEW030 SCT038 20/16 Q1016   
EGBB 231550Z 07011KT 9999 -SHRA FEW024 20/16 Q1016  
EGBB 231520Z 07011KT 9999 SCT034 21/15 Q1016
EGBB 231450Z 07011KT 9999 SCT034 21/15 Q1016
EGBB 231420Z 07009KT 040V100 9999 SCT032 21/15 Q1017
EGBB 231350Z 06011G28KT 320V140 9999 SCT027 21/15 Q1017 
EGBB 231320Z 07009KT 040V100 9999 FEW025 21/15 Q1017
EGBB 231250Z 07010KT 040V120 9999 FEW020 20/14 Q1017
EGBB 231220Z 07009KT 050V110 CAVOK 20/14 Q1017  
EGBB 231150Z 09008KT 070V130 9999 FEW020 19/14 Q1018
EGBB 231120Z 08008KT CAVOK 19/14 Q1018  
EGBB 231050Z 07008KT 360V100 CAVOK 18/13 Q1018  
EGBB 231020Z 09007KT 9999 FEW019 18/13 Q1018
EGBB 230950Z 10007KT 060V130 9999 FEW019 18/13 Q1018
EGBB 230920Z 06007KT 030V090 9999 FEW013 17/13 Q1019
EGBB 230850Z 07006KT 9999 SCT011 16/13 Q1019